Port Hood, Canada
Current Conditions -  °F | °C
As of 9:00 AM on Thursday 30 Oct 2014 (Local Time) from CYPD Reporting Station
Overcast Overcast  
Wind Chill: 54°   Ceiling: 1000
Heat Index: 54°   Visibility: 9mi
Dew Point: 52°   Wind: 10mph
Humidity: 94%   Direction: 300°WNW
Pressure: 29.74"   Gusts: 22mph
Location:  46.03°N, 61.53°W
Report Text: CYPD 301200Z AUTO 30009G19KT 9SM BKN010 OVC014 12/11 A2974 RMK SLP072
Loading
Personal Weather Stations






























Interactive Weather Map
Tropical Storm Tracking
New forecast layout! Learn more

10-Day Weather Forecast

Advertisements
Track Severe Weather on mobile